Terminal Aerodrome Forecast
Issued by NWS

Home | Current Version | Previous Version | Text Only | Print | Product List | Glossary On
Versions: 1 2 3 4 5 6 7 8 9 10 11 12 13 14
000
FTPA31 PHFO 201139
TAFHJR
TAF
PHJR 201139Z 2012/2112 05005KT P6SM FEW025 FEW050
     FM202000 12008KT P6SM FEW025 SCT050
     FM210400 VRB03KT P6SM FEW025 SCT050=

USA.gov is the U.S. government's official web portal to all federal, state and local government web resources and services.